createdAt,value
2019-04-23T00:00:25.869Z,7.77
2019-04-23T00:02:58.771Z,8.20
2019-04-23T00:05:36.481Z,8.40
2019-04-23T00:15:10.639Z,8.53
2019-04-23T00:17:42.128Z,7.73
2019-04-23T00:20:09.550Z,8.83
2019-04-23T00:23:02.024Z,8.63
2019-04-23T00:26:03.952Z,8.23
2019-04-23T00:28:21.621Z,9.27
2019-04-23T00:30:49.704Z,9.17
2019-04-23T00:33:12.103Z,8.73
2019-04-23T00:35:55.064Z,8.37
2019-04-23T00:38:26.834Z,9.50
2019-04-23T00:40:51.382Z,9.27
2019-04-23T00:45:48.849Z,9.47
2019-04-23T00:48:19.610Z,8.87
2019-04-23T00:53:12.716Z,8.97
2019-04-23T00:55:44.671Z,8.97
2019-04-23T00:58:06.247Z,9.07
2019-04-23T01:00:41.883Z,9.50
2019-04-23T01:02:59.056Z,9.50
2019-04-23T01:05:30.760Z,9.33
2019-04-23T01:07:51.532Z,9.60
2019-04-23T01:10:32.252Z,9.50
2019-04-23T01:13:08.853Z,8.70
2019-04-23T01:15:28.844Z,9.73
2019-04-23T01:20:30.779Z,9.83
2019-04-23T01:22:35.629Z,9.30
2019-04-23T01:25:30.815Z,9.53
2019-04-23T01:28:23.537Z,9.33
2019-04-23T01:30:50.101Z,8.83
2019-04-23T01:33:21.114Z,9.83
2019-04-23T01:35:43.082Z,9.70
2019-04-23T01:38:06.259Z,10.00
2019-04-23T01:40:36.599Z,9.77
2019-04-23T01:43:01.689Z,9.57
2019-04-23T01:47:54.913Z,9.90
2019-04-23T01:52:56.155Z,10.33
2019-04-23T01:55:22.251Z,10.13
2019-04-23T02:00:18.786Z,9.73
2019-04-23T02:02:47.659Z,10.50
2019-04-23T02:07:35.923Z,11.00
2019-04-23T02:10:07.028Z,10.43
2019-04-23T02:12:33.314Z,10.33
2019-04-23T02:14:59.361Z,10.67
2019-04-23T02:17:24.840Z,9.90
2019-04-23T02:19:59.439Z,10.67
2019-04-23T02:22:59.974Z,9.77
2019-04-23T02:25:34.511Z,10.40
2019-04-23T02:27:52.180Z,10.87
2019-04-23T02:30:40.598Z,10.87
2019-04-23T02:32:59.457Z,10.63
2019-04-23T02:35:32.876Z,10.20
2019-04-23T02:37:53.776Z,11.23
2019-04-23T02:40:23.649Z,10.47
2019-04-23T02:42:55.891Z,10.67
2019-04-23T02:45:02.107Z,11.70
2019-04-23T02:47:34.885Z,9.57
2019-04-23T02:50:12.588Z,10.83
2019-04-23T02:52:28.886Z,10.77
2019-04-23T02:55:10.781Z,11.27
2019-04-23T02:57:13.444Z,10.60
2019-04-23T03:04:58.092Z,11.30
2019-04-23T03:07:14.057Z,10.23
2019-04-23T03:09:45.536Z,11.10
2019-04-23T03:12:25.022Z,11.10
2019-04-23T03:14:36.942Z,10.70
2019-04-23T03:19:37.724Z,11.20
2019-04-23T03:22:28.757Z,11.20
2019-04-23T03:25:31.018Z,10.67
2019-04-23T03:27:51.070Z,11.53
2019-04-23T03:33:31.059Z,11.33
2019-04-23T03:35:09.483Z,11.27
2019-04-23T03:45:08.074Z,11.27
2019-04-23T03:47:32.043Z,10.77
2019-04-23T03:52:27.689Z,11.10
2019-04-23T03:54:44.567Z,10.93
2019-04-23T03:59:52.156Z,11.83
2019-04-23T04:04:33.299Z,10.43
2019-04-23T04:07:09.842Z,10.73
2019-04-23T04:09:34.159Z,10.57
2019-04-23T04:11:56.693Z,11.00
2019-04-23T04:14:42.157Z,10.33
2019-04-23T04:19:32.390Z,10.57
2019-04-23T04:21:52.983Z,11.07
2019-04-23T04:24:22.535Z,10.43
2019-04-23T04:29:11.700Z,10.63
2019-04-23T04:31:43.003Z,10.23
2019-04-23T04:34:13.048Z,9.93
2019-04-23T04:36:40.661Z,10.30
2019-04-23T04:38:54.439Z,10.50
2019-04-23T04:41:29.077Z,9.00
2019-04-23T04:56:14.296Z,9.77
2019-04-23T04:58:42.095Z,9.60
2019-04-23T05:01:13.752Z,9.47
2019-04-23T05:03:26.930Z,9.60
2019-04-23T05:08:26.390Z,8.97
2019-04-23T05:10:51.329Z,10.37
2019-04-23T05:13:30.220Z,8.90
2019-04-23T05:20:53.325Z,9.80
2019-04-23T05:23:28.137Z,9.53
2019-04-23T05:25:38.102Z,8.20
2019-04-23T05:28:12.611Z,8.27
2019-04-23T05:30:39.742Z,9.40
2019-04-23T05:33:05.969Z,7.93
2019-04-23T05:35:46.608Z,9.70
2019-04-23T05:38:23.115Z,9.10
2019-04-23T05:40:30.619Z,9.07
2019-04-23T05:42:52.043Z,8.83
2019-04-23T05:45:18.474Z,8.23
2019-04-23T05:47:48.237Z,8.80
2019-04-23T05:50:18.590Z,8.57
2019-04-23T05:52:41.342Z,8.70
2019-04-23T05:55:02.414Z,8.70
2019-04-23T05:57:28.857Z,8.73
2019-04-23T05:59:55.585Z,9.20
2019-04-23T06:02:26.203Z,8.33
2019-04-23T06:04:49.576Z,8.60
2019-04-23T06:07:28.756Z,8.90
2019-04-23T06:09:48.040Z,8.27
2019-04-23T06:12:31.893Z,8.70
2019-04-23T06:17:09.630Z,8.30
2019-04-23T06:19:28.735Z,8.33
2019-04-23T06:22:26.941Z,8.07
2019-04-23T06:24:39.791Z,5.83
2019-04-23T06:27:01.242Z,7.73
2019-04-23T06:29:25.568Z,7.90
2019-04-23T06:31:50.851Z,6.90
2019-04-23T06:34:26.533Z,7.97
2019-04-23T06:36:46.326Z,7.70
2019-04-23T06:39:10.266Z,7.70
2019-04-23T06:44:19.082Z,7.80
2019-04-23T06:46:48.075Z,7.67
2019-04-23T06:49:09.324Z,6.73
2019-04-23T06:53:56.748Z,7.13
2019-04-23T06:56:37.521Z,7.17
2019-04-23T06:59:02.445Z,7.07
2019-04-23T07:01:19.186Z,6.63
2019-04-23T07:03:50.673Z,6.80
2019-04-23T07:06:27.314Z,6.70
2019-04-23T07:09:09.555Z,7.17
2019-04-23T07:13:49.220Z,7.20
2019-04-23T07:18:37.934Z,7.67
2019-04-23T07:21:06.784Z,6.93
2019-04-23T07:23:39.306Z,6.57
2019-04-23T07:26:13.953Z,6.60
2019-04-23T07:28:32.512Z,6.93
2019-04-23T07:31:02.159Z,6.50
2019-04-23T07:33:19.104Z,8.27
2019-04-23T07:35:51.790Z,7.70
2019-04-23T07:38:44.262Z,10.00
2019-04-23T07:41:09.731Z,19.53
2019-04-23T07:43:41.059Z,7.20
2019-04-23T07:46:25.039Z,6.67
2019-04-23T07:48:43.899Z,6.47
2019-04-23T07:51:07.771Z,5.80
2019-04-23T07:53:42.876Z,5.83
2019-04-23T07:56:07.551Z,5.73
2019-04-23T07:58:42.980Z,6.10
2019-04-23T08:00:57.076Z,6.00
2019-04-23T08:05:49.504Z,6.60
2019-04-23T08:08:16.758Z,6.47
2019-04-23T08:11:23.407Z,6.17
2019-04-23T08:13:42.347Z,5.83
2019-04-23T08:16:00.515Z,5.00
2019-04-23T08:18:29.631Z,6.27
2019-04-23T08:23:49.093Z,5.63
2019-04-23T08:26:34.854Z,6.63
2019-04-23T08:31:35.143Z,6.20
2019-04-23T08:33:58.865Z,5.43
2019-04-23T08:36:23.659Z,5.37
2019-04-23T08:38:48.108Z,5.43
2019-04-23T08:43:49.386Z,5.90
2019-04-23T08:46:33.034Z,5.77
2019-04-23T08:48:57.566Z,6.20
2019-04-23T08:51:28.293Z,5.77
2019-04-23T08:56:15.133Z,5.80
2019-04-23T09:03:36.201Z,9.80
2019-04-23T09:06:06.216Z,16.53
2019-04-23T09:15:49.872Z,7.20
2019-04-23T09:20:37.800Z,9.47
2019-04-23T09:23:13.174Z,6.20
2019-04-23T09:25:49.791Z,5.40
2019-04-23T09:28:11.461Z,6.80
2019-04-23T09:30:38.808Z,5.43
2019-04-23T09:33:37.313Z,5.33
2019-04-23T09:36:09.708Z,5.53
2019-04-23T09:38:54.158Z,5.20
2019-04-23T09:42:01.042Z,5.20
2019-04-23T09:47:01.941Z,5.30
2019-04-23T09:49:29.014Z,5.00
2019-04-23T09:52:02.616Z,5.03
2019-04-23T09:54:25.891Z,5.10
2019-04-23T09:57:04.588Z,5.03
2019-04-23T10:01:48.207Z,4.72
2019-04-23T10:04:12.503Z,3.73
2019-04-23T10:06:32.691Z,4.07
2019-04-23T10:09:01.985Z,4.63
2019-04-23T10:11:28.452Z,4.63
2019-04-23T10:13:58.617Z,4.87
2019-04-23T10:16:30.172Z,4.62
2019-04-23T10:18:59.353Z,5.17
2019-04-23T10:21:29.299Z,4.80
2019-04-23T10:23:59.291Z,4.45
2019-04-23T10:26:28.320Z,4.67
2019-04-23T10:29:02.132Z,4.78
2019-04-23T10:31:27.753Z,4.40
2019-04-23T10:33:53.077Z,4.40
2019-04-23T10:36:21.961Z,4.42
2019-04-23T10:38:51.562Z,4.00
2019-04-23T10:41:13.971Z,4.15
2019-04-23T10:43:43.599Z,3.87
2019-04-23T10:46:49.007Z,4.65
2019-04-23T10:53:04.523Z,4.17
2019-04-23T10:56:59.730Z,4.00
2019-04-23T10:59:38.935Z,4.62
2019-04-23T11:02:25.413Z,5.08
2019-04-23T11:04:48.866Z,3.95
2019-04-23T11:07:05.291Z,4.40
2019-04-23T11:09:45.269Z,4.85
2019-04-23T11:12:16.285Z,4.62
2019-04-23T11:14:42.219Z,4.60
2019-04-23T11:17:03.623Z,5.20
2019-04-23T11:19:32.375Z,4.70
2019-04-23T11:22:13.386Z,4.65
2019-04-23T11:24:37.990Z,4.17
2019-04-23T11:26:49.334Z,4.60
2019-04-23T11:29:19.395Z,4.00
2019-04-23T11:38:02.677Z,4.90
2019-04-23T11:38:58.521Z,4.55
2019-04-23T11:41:47.338Z,4.33
2019-04-23T11:44:56.199Z,4.78
2019-04-23T11:46:39.801Z,5.05
2019-04-23T11:56:32.525Z,5.12
2019-04-23T11:58:42.176Z,4.70
2019-04-23T12:01:42.785Z,5.20
2019-04-23T12:04:24.907Z,4.83
2019-04-23T12:07:00.612Z,4.80
2019-04-23T12:09:50.043Z,4.87
2019-04-23T12:12:10.520Z,4.70
2019-04-23T12:17:22.686Z,5.37
2019-04-23T12:22:16.572Z,4.65
2019-04-23T12:27:05.883Z,5.25
2019-04-23T12:29:37.491Z,5.00
2019-04-23T12:32:37.467Z,5.25
2019-04-23T12:34:57.951Z,5.22
2019-04-23T12:37:15.070Z,5.20
2019-04-23T12:39:42.515Z,4.67
2019-04-23T12:42:25.102Z,5.80
2019-04-23T12:44:38.622Z,5.25
2019-04-23T12:47:17.255Z,4.87
2019-04-23T12:49:59.135Z,5.33
2019-04-23T12:52:04.977Z,4.78
2019-04-23T12:54:41.070Z,5.60
2019-04-23T12:57:04.777Z,6.70
2019-04-23T12:59:26.960Z,4.87
2019-04-23T13:01:55.922Z,5.25
2019-04-23T13:04:26.142Z,5.22
2019-04-23T13:06:45.815Z,5.25
2019-04-23T13:09:21.852Z,5.75
2019-04-23T13:11:41.083Z,5.20
2019-04-23T13:14:11.849Z,5.00
2019-04-23T13:16:48.800Z,5.37
2019-04-23T13:19:03.596Z,6.03
2019-04-23T13:24:04.328Z,5.50
2019-04-23T13:26:30.723Z,5.15
2019-04-23T13:29:01.088Z,5.83
2019-04-23T13:31:40.304Z,5.42
2019-04-23T13:33:57.844Z,5.55
2019-04-23T13:36:32.932Z,5.78
2019-04-23T13:38:56.665Z,6.00
2019-04-23T13:41:31.350Z,5.85
2019-04-23T13:43:47.791Z,6.05
2019-04-23T13:46:20.027Z,5.33
2019-04-23T13:48:49.316Z,5.35
2019-04-23T13:51:21.207Z,5.50
2019-04-23T13:53:59.264Z,5.60
2019-04-23T13:56:15.321Z,5.70
2019-04-23T13:58:43.735Z,5.50
2019-04-23T14:01:18.590Z,5.25
2019-04-23T14:06:29.836Z,5.90
2019-04-23T14:08:47.399Z,6.17
2019-04-23T14:11:13.442Z,6.03
2019-04-23T14:13:46.322Z,6.05
2019-04-23T14:18:56.207Z,5.62
2019-04-23T14:20:59.022Z,6.08
2019-04-23T14:26:10.846Z,6.17
2019-04-23T14:28:28.994Z,6.05
2019-04-23T14:33:26.606Z,6.00
2019-04-23T14:35:46.342Z,5.83
2019-04-23T14:38:32.088Z,6.35
2019-04-23T14:40:59.570Z,5.87
2019-04-23T14:46:12.085Z,6.25
2019-04-23T14:48:14.636Z,6.22
2019-04-23T14:50:51.947Z,5.95
2019-04-23T14:53:18.758Z,6.53
2019-04-23T14:58:15.961Z,6.20
2019-04-23T15:00:43.392Z,5.80
2019-04-23T15:03:08.688Z,6.40
2019-04-23T15:05:36.082Z,5.97
2019-04-23T15:08:02.078Z,5.90
2019-04-23T15:10:29.553Z,6.47
2019-04-23T15:12:51.856Z,6.03
2019-04-23T15:15:21.131Z,6.97
2019-04-23T15:17:49.700Z,6.90
2019-04-23T15:20:15.316Z,6.80
2019-04-23T15:29:57.740Z,7.07
2019-04-23T15:32:44.446Z,6.90
2019-04-23T15:35:23.559Z,6.93
2019-04-23T15:37:39.641Z,6.97
2019-04-23T15:40:01.035Z,7.40
2019-04-23T15:44:52.174Z,7.20
2019-04-23T15:47:21.644Z,7.23
2019-04-23T15:49:47.421Z,6.80
2019-04-23T15:52:14.282Z,7.90
2019-04-23T15:54:55.261Z,7.50
2019-04-23T16:01:42.494Z,7.70
2019-04-23T16:03:59.099Z,7.83
2019-04-23T16:06:28.439Z,7.73
2019-04-23T16:09:10.623Z,7.90
2019-04-23T16:11:47.804Z,8.47
2019-04-23T16:16:45.456Z,8.27
2019-04-23T16:24:13.595Z,9.03
2019-04-23T16:26:37.353Z,8.23
2019-04-23T16:31:34.706Z,7.83
2019-04-23T16:36:41.465Z,8.67
2019-04-23T16:39:06.301Z,8.33
2019-04-23T16:41:32.703Z,8.83
2019-04-23T16:44:06.786Z,8.50
2019-04-23T16:46:27.221Z,7.50
2019-04-23T16:51:24.750Z,9.07
2019-04-23T16:53:50.789Z,8.73
2019-04-23T16:56:18.519Z,8.97
2019-04-23T16:58:54.597Z,9.10
2019-04-23T17:03:38.335Z,9.30
2019-04-23T17:06:10.664Z,8.93
2019-04-23T17:11:09.717Z,10.03
2019-04-23T17:13:34.671Z,9.60
2019-04-23T17:23:29.433Z,10.43
2019-04-23T17:25:42.125Z,10.27
2019-04-23T17:28:24.818Z,10.53
2019-04-23T17:30:48.858Z,10.20
2019-04-23T17:33:33.252Z,9.97
2019-04-23T17:36:26.631Z,10.70
2019-04-23T17:39:05.559Z,10.33
2019-04-23T17:42:00.250Z,10.23
2019-04-23T17:44:10.870Z,10.43
2019-04-23T17:46:30.143Z,10.50
2019-04-23T17:48:55.139Z,10.60
2019-04-23T17:51:19.814Z,10.37
2019-04-23T17:53:48.699Z,10.67
2019-04-23T17:58:43.753Z,10.17
2019-04-23T18:01:31.022Z,11.40
2019-04-23T18:03:49.736Z,10.30
2019-04-23T18:06:23.425Z,10.60
2019-04-23T18:08:41.496Z,11.17
2019-04-23T18:11:12.912Z,10.93
2019-04-23T18:13:40.934Z,10.53
2019-04-23T18:16:02.408Z,11.23
2019-04-23T18:18:33.554Z,11.17
2019-04-23T18:21:21.448Z,10.80
2019-04-23T18:23:41.295Z,11.27
2019-04-23T18:26:13.949Z,11.13
2019-04-23T18:28:39.742Z,10.53
2019-04-23T18:31:20.151Z,11.83
2019-04-23T18:34:08.631Z,11.53
2019-04-23T18:36:32.477Z,11.83
2019-04-23T18:39:06.676Z,11.07
2019-04-23T18:41:27.310Z,11.97
2019-04-23T18:43:56.794Z,11.13
2019-04-23T18:48:50.290Z,10.70
2019-04-23T18:51:10.400Z,10.93
2019-04-23T18:56:11.288Z,11.47
2019-04-23T19:01:28.082Z,11.30
2019-04-23T19:06:32.691Z,11.50
2019-04-23T19:09:13.626Z,10.93
2019-04-23T19:14:30.881Z,10.50
2019-04-23T19:16:53.186Z,11.03
2019-04-23T19:19:10.857Z,10.80
2019-04-23T19:22:07.147Z,10.40
2019-04-23T19:26:55.287Z,11.37
2019-04-23T19:29:00.553Z,11.23
2019-04-23T19:31:49.326Z,10.63
2019-04-23T19:36:49.289Z,10.80
2019-04-23T19:39:11.063Z,10.27
2019-04-23T19:41:39.421Z,10.43
2019-04-23T19:44:02.880Z,10.20
2019-04-23T19:46:41.474Z,10.17
2019-04-23T19:48:57.874Z,10.53
2019-04-23T19:51:25.138Z,10.07
2019-04-23T19:56:15.917Z,10.30
2019-04-23T19:58:56.712Z,10.00
2019-04-23T20:01:16.588Z,9.67
2019-04-23T20:03:48.625Z,9.23
2019-04-23T20:08:49.385Z,8.50
2019-04-23T20:11:01.274Z,7.93
2019-04-23T20:13:30.394Z,7.70
2019-04-23T20:16:04.867Z,5.80
2019-04-23T20:18:26.905Z,5.63
2019-04-23T20:20:51.407Z,5.93
2019-04-23T20:23:24.385Z,5.80
2019-04-23T20:28:41.366Z,6.00
2019-04-23T20:36:07.026Z,5.40
2019-04-23T20:38:48.596Z,5.67
2019-04-23T20:43:14.719Z,5.27
2019-04-23T20:45:54.634Z,4.47
2019-04-23T20:48:12.615Z,5.10
2019-04-23T20:50:41.022Z,4.60
2019-04-23T20:53:03.626Z,5.00
2019-04-23T20:55:54.562Z,4.80
2019-04-23T20:58:21.187Z,5.10
2019-04-23T21:01:22.280Z,5.10
2019-04-23T21:03:46.267Z,4.97
2019-04-23T21:05:58.445Z,4.73
2019-04-23T21:08:38.783Z,5.30
2019-04-23T21:11:08.804Z,5.03
2019-04-23T21:13:42.702Z,4.97
2019-04-23T21:15:45.723Z,4.90
2019-04-23T21:20:40.100Z,4.97
2019-04-23T21:23:21.274Z,4.67
2019-04-23T21:25:37.063Z,4.73
2019-04-23T21:28:17.809Z,4.33
2019-04-23T21:33:38.768Z,4.73
2019-04-23T21:39:19.559Z,3.97
2019-04-23T21:41:57.971Z,4.20
2019-04-23T21:44:18.884Z,4.23
2019-04-23T21:46:51.142Z,3.87
2019-04-23T21:53:58.717Z,3.87
2019-04-23T21:59:04.348Z,3.50
2019-04-23T22:04:09.100Z,3.67
2019-04-23T22:06:28.636Z,4.17
2019-04-23T22:09:02.816Z,3.87
2019-04-23T22:11:43.986Z,3.57
2019-04-23T22:13:59.505Z,3.93
2019-04-23T22:16:16.892Z,4.27
2019-04-23T22:18:57.165Z,4.23
2019-04-23T22:23:50.617Z,3.93
2019-04-23T22:26:21.896Z,3.83
2019-04-23T22:28:45.462Z,4.00
2019-04-23T22:31:04.240Z,3.77
2019-04-23T22:33:26.771Z,4.27
2019-04-23T22:35:55.717Z,3.70
2019-04-23T22:38:18.777Z,4.10
2019-04-23T22:40:49.796Z,4.10
2019-04-23T22:45:44.369Z,3.50
2019-04-23T22:48:11.856Z,4.00
2019-04-23T22:50:38.755Z,3.60
2019-04-23T22:53:00.386Z,3.67
2019-04-23T22:55:55.101Z,3.40
2019-04-23T22:58:06.550Z,3.90
2019-04-23T23:00:34.957Z,4.43
2019-04-23T23:03:22.662Z,3.90
2019-04-23T23:05:56.329Z,3.67
2019-04-23T23:08:22.401Z,3.53
2019-04-23T23:10:42.836Z,3.90
2019-04-23T23:15:30.534Z,3.30
2019-04-23T23:17:59.957Z,3.20
2019-04-23T23:30:19.588Z,3.30
2019-04-23T23:32:52.379Z,3.03
2019-04-23T23:37:36.875Z,3.13
2019-04-23T23:40:14.720Z,3.30
2019-04-23T23:42:36.579Z,3.27
2019-04-23T23:45:06.943Z,2.93
2019-04-23T23:47:18.075Z,3.13
2019-04-23T23:50:01.280Z,3.30
2019-04-23T23:52:21.577Z,3.07
2019-04-23T23:54:52.554Z,3.10
